Time;durP1;ratioP1;P1;durP2;ratioP2;P2;SDS_P1;SDS_P2;PMS_P1;PMS_P2;Temp;Humidity;BMP_temperature;BMP_pressure;BME280_temperature;BME280_humidity;BME280_pressure;Samples;Min_cycle;Max_cycle;Signal;HPM_P1;HPM_P2
2023/05/02 00:02:09;;;;;;;8.33;4.57;;;;;;;12.00;42.32;100308.38;5011206;28;20293;-64
2023/05/02 00:04:37;;;;;;;6.93;4.50;;;;;;;11.96;41.99;100300.66;5011111;28;20218;-64
2023/05/02 00:07:05;;;;;;;6.87;4.37;;;;;;;11.93;42.55;100303.28;5011169;28;20207;-62
2023/05/02 00:09:34;;;;;;;9.73;5.00;;;;;;;11.91;42.09;100307.63;5011165;28;20199;-63
2023/05/02 00:12:02;;;;;;;8.53;4.77;;;;;;;11.88;42.33;100302.50;5010836;28;20235;-64
2023/05/02 00:14:30;;;;;;;6.37;4.43;;;;;;;11.84;42.44;100296.53;5011203;28;20581;-64
2023/05/02 00:16:58;;;;;;;7.33;4.83;;;;;;;11.88;42.51;100303.34;5010976;28;20702;-63
2023/05/02 00:19:27;;;;;;;6.87;4.67;;;;;;;11.89;42.29;100292.13;5011009;28;20232;-64
2023/05/02 00:21:55;;;;;;;7.50;4.07;;;;;;;11.91;42.60;100292.97;5010940;28;20694;-68
2023/05/02 00:24:23;;;;;;;7.53;4.33;;;;;;;11.91;42.59;100290.41;5011386;28;20642;-66
2023/05/02 00:26:51;;;;;;;8.33;4.53;;;;;;;11.93;42.16;100288.66;5010480;28;20299;-65
2023/05/02 00:29:19;;;;;;;6.30;4.27;;;;;;;11.94;42.34;100285.19;5011088;28;20241;-66
2023/05/02 00:31:47;;;;;;;9.90;4.17;;;;;;;11.93;42.27;100285.22;5010878;28;20604;-65
2023/05/02 00:34:15;;;;;;;6.07;4.43;;;;;;;11.94;41.98;100282.63;5010693;28;20836;-63
2023/05/02 00:36:45;;;;;;;7.00;4.57;;;;;;;11.96;42.68;100283.44;5011046;28;20249;-64
2023/05/02 00:39:13;;;;;;;8.33;4.37;;;;;;;11.99;42.08;100275.66;5010511;28;20250;-64
2023/05/02 00:41:41;;;;;;;5.53;3.77;;;;;;;12.00;42.00;100277.38;5013341;28;20270;-64
2023/05/02 00:44:09;;;;;;;9.30;3.93;;;;;;;11.99;42.00;100275.66;5014797;28;20215;-64
2023/05/02 00:46:37;;;;;;;9.37;4.10;;;;;;;11.98;42.09;100273.97;5014507;28;20207;-64
2023/05/02 00:49:05;;;;;;;8.83;4.37;;;;;;;11.97;42.03;100267.09;5014628;28;20670;-66
2023/05/02 00:51:34;;;;;;;6.83;3.60;;;;;;;11.98;41.79;100265.34;5014387;28;20227;-64
2023/05/02 00:54:04;;;;;;;6.50;4.23;;;;;;;11.95;41.71;100268.81;5014267;28;20207;-65
2023/05/02 00:56:32;;;;;;;6.37;3.73;;;;;;;11.96;42.04;100272.25;5014257;28;20227;-64
2023/05/02 00:59:00;;;;;;;8.03;3.83;;;;;;;11.99;42.30;100267.06;5014212;28;20215;-63
2023/05/02 01:01:38;;;;;;;6.10;3.77;;;;;;;11.98;42.13;100255.03;5014244;28;20235;-65
2023/05/02 01:04:21;;;;;;;5.83;3.77;;;;;;;12.03;42.08;100258.38;5014408;28;20654;-64
2023/05/02 01:10:51;;;;;;;7.03;3.93;;;;;;;12.00;41.60;100259.31;5042283;22;20248;-83
2023/05/02 01:13:22;;;;;;;6.47;3.53;;;;;;;12.00;41.66;100250.69;5002388;28;20584;-83
2023/05/02 01:15:53;;;;;;;5.13;3.70;;;;;;;11.99;41.99;100260.16;5000913;28;20208;-82
2023/05/02 01:18:25;;;;;;;4.73;3.37;;;;;;;11.99;41.48;100239.50;5001357;28;20212;-83
2023/05/02 01:21:06;;;;;;;6.97;3.90;;;;;;;12.01;41.70;100250.69;5003720;28;20219;-84
2023/05/02 01:23:44;;;;;;;5.50;3.80;;;;;;;11.98;41.88;100257.63;5003835;28;20592;-83
2023/05/02 01:26:27;;;;;;;7.77;4.07;;;;;;;11.97;41.77;100246.44;5015011;28;20234;-83
2023/05/02 01:28:59;;;;;;;6.97;3.80;;;;;;;11.96;41.63;100244.69;4992538;28;20697;-84
2023/05/02 01:31:31;;;;;;;7.73;3.80;;;;;;;11.97;41.67;100255.91;5003083;28;20671;-83
2023/05/02 01:34:02;;;;;;;7.53;3.90;;;;;;;11.93;42.21;100249.06;5009171;28;20552;-83
2023/05/02 01:36:32;;;;;;;6.80;4.10;;;;;;;11.89;42.16;100247.38;5022134;28;20278;-83
2023/05/02 01:39:02;;;;;;;6.53;3.50;;;;;;;11.84;42.12;100247.47;5022068;28;20218;-83
2023/05/02 01:41:32;;;;;;;6.63;3.73;;;;;;;11.83;42.36;100248.31;5021910;28;20238;-84
2023/05/02 01:44:03;;;;;;;6.67;3.50;;;;;;;11.84;42.50;100242.31;5017434;28;20218;-83
2023/05/02 01:46:36;;;;;;;7.43;3.67;;;;;;;11.83;42.32;100225.06;5002251;28;20643;-83
2023/05/02 01:49:08;;;;;;;5.70;3.80;;;;;;;11.79;42.49;100226.00;5015266;28;20284;-82
2023/05/02 01:51:46;;;;;;;3.80;2.73;;;;;;;11.76;42.15;100226.88;5009699;28;20570;-83
2023/05/02 01:54:16;;;;;;;6.23;4.13;;;;;;;11.74;42.66;100220.03;5014683;28;20299;-83
2023/05/02 01:56:46;;;;;;;9.43;4.13;;;;;;;11.66;42.27;100206.38;5009710;28;20227;-84
2023/05/02 01:59:18;;;;;;;6.93;3.37;;;;;;;11.68;42.47;100213.22;5005438;28;20303;-83
2023/05/02 02:01:48;;;;;;;5.77;4.07;;;;;;;11.72;42.40;100217.47;5020063;28;20689;-84
2023/05/02 02:04:17;;;;;;;6.87;3.30;;;;;;;11.75;42.76;100220.03;5006664;28;20563;-82
2023/05/02 02:06:51;;;;;;;5.70;3.17;;;;;;;11.77;42.27;100214.81;5002076;28;20595;-83
2023/05/02 02:09:19;;;;;;;5.33;3.37;;;;;;;11.73;42.28;100200.25;5001675;28;20214;-83
2023/05/02 02:11:52;;;;;;;8.07;3.83;;;;;;;11.70;42.86;100192.56;5010737;28;20226;-83
2023/05/02 02:14:28;;;;;;;7.37;3.53;;;;;;;11.76;42.77;100200.22;5005287;28;20682;-84
2023/05/02 02:17:00;;;;;;;6.00;3.43;;;;;;;11.79;42.39;100205.34;5001775;28;20628;-84
2023/05/02 02:19:30;;;;;;;7.63;3.47;;;;;;;11.72;42.49;100201.13;5000756;28;20216;-84
2023/05/02 02:22:00;;;;;;;6.90;3.87;;;;;;;11.64;42.67;100187.50;5001954;28;20260;-83
2023/05/02 02:24:30;;;;;;;4.83;3.70;;;;;;;11.59;43.10;100185.81;5016343;28;20218;-83
2023/05/02 02:26:58;;;;;;;5.03;3.63;;;;;;;11.67;42.36;100184.84;5021794;28;20203;-84
2023/05/02 02:29:28;;;;;;;5.90;3.43;;;;;;;11.59;42.83;100178.06;5020382;28;20210;-84
2023/05/02 02:31:59;;;;;;;6.27;3.90;;;;;;;11.66;42.88;100185.72;5017535;28;20215;-84
2023/05/02 02:34:27;;;;;;;5.67;3.53;;;;;;;11.67;42.98;100187.44;5013386;28;20219;-84
2023/05/02 02:37:04;;;;;;;6.80;3.43;;;;;;;11.66;43.03;100189.16;5002179;28;20647;-82
2023/05/02 02:39:44;;;;;;;5.00;3.40;;;;;;;11.70;42.69;100200.28;5013404;28;20676;-83
2023/05/02 02:42:25;;;;;;;4.30;3.43;;;;;;;11.37;43.00;100146.53;5020598;28;20290;-83
2023/05/02 02:45:05;;;;;;;7.07;3.83;;;;;;;11.72;43.14;100194.25;5019029;28;20207;-83
2023/05/02 02:47:44;;;;;;;8.37;4.10;;;;;;;11.74;43.22;100213.13;5018376;28;20211;-84
2023/05/02 02:50:20;;;;;;;8.63;4.00;;;;;;;11.73;43.35;100189.94;5018731;28;20202;-84
2023/05/02 02:52:55;;;;;;;6.03;3.40;;;;;;;11.72;43.23;100198.56;5009074;28;20210;-83
2023/05/02 02:55:37;;;;;;;6.73;4.07;;;;;;;11.69;43.42;100190.84;5014014;28;20211;-84
2023/05/02 02:58:18;;;;;;;5.57;3.50;;;;;;;11.66;43.60;100188.31;5010847;28;20215;-83
2023/05/02 03:00:54;;;;;;;6.00;3.57;;;;;;;11.64;43.46;100184.91;5020177;28;20199;-83
2023/05/02 03:03:27;;;;;;;6.03;3.73;;;;;;;11.66;43.78;100181.41;5019894;28;20297;-84
2023/05/02 03:05:57;;;;;;;6.53;4.00;;;;;;;11.65;43.84;100186.63;4998941;28;20231;-82
2023/05/02 03:08:26;;;;;;;8.07;3.77;;;;;;;11.64;43.73;100183.19;5011145;28;20208;-83
2023/05/02 03:10:54;;;;;;;5.93;3.57;;;;;;;11.61;43.57;100185.78;5014794;28;20239;-82
2023/05/02 03:13:24;;;;;;;9.50;3.90;;;;;;;11.60;43.98;100187.53;5010878;28;20242;-83
2023/05/02 03:16:20;;;;;;;8.57;4.73;;;;;;;11.55;43.91;100191.03;5020208;28;20210;-83
2023/05/02 03:18:48;;;;;;;5.47;3.57;;;;;;;11.52;43.86;100189.34;5009196;28;20215;-81
2023/05/02 03:21:16;;;;;;;5.57;3.87;;;;;;;11.41;44.00;100173.13;5014163;28;20199;-83
2023/05/02 03:23:44;;;;;;;9.30;4.07;;;;;;;11.46;44.45;100192.00;5008609;28;20685;-83
2023/05/02 03:26:12;;;;;;;7.40;4.07;;;;;;;11.43;44.13;100181.72;5021402;28;20217;-83
2023/05/02 03:28:41;;;;;;;6.93;4.07;;;;;;;11.42;44.40;100181.75;5020745;28;20211;-83
2023/05/02 03:31:10;;;;;;;7.03;4.37;;;;;;;11.35;44.27;100174.09;5021070;28;20724;-83
2023/05/02 03:33:40;;;;;;;5.90;4.07;;;;;;;11.44;44.60;100193.75;5004392;28;20212;-83
2023/05/02 03:36:08;;;;;;;7.70;4.20;;;;;;;11.39;44.79;100185.22;5012562;28;20234;-82
2023/05/02 03:38:37;;;;;;;6.60;4.20;;;;;;;11.29;44.63;100174.16;5014979;28;20239;-83
2023/05/02 03:41:05;;;;;;;6.80;3.53;;;;;;;11.45;44.35;100187.75;5010858;28;20230;-82
2023/05/02 03:43:34;;;;;;;8.40;3.77;;;;;;;11.42;44.49;100176.59;5016236;28;20643;-82
2023/05/02 03:46:07;;;;;;;7.70;4.10;;;;;;;11.51;44.58;100187.63;5010894;28;20218;-83
2023/05/02 03:48:37;;;;;;;6.67;4.20;;;;;;;11.52;44.82;100185.91;5004725;28;20216;-83
2023/05/02 03:51:08;;;;;;;4.93;3.97;;;;;;;11.52;44.58;100185.91;5010192;28;20230;-82
2023/05/02 03:53:37;;;;;;;7.30;4.13;;;;;;;11.54;44.89;100190.19;5017620;28;20716;-84
2023/05/02 03:56:06;;;;;;;7.07;3.93;;;;;;;11.60;45.22;100189.25;4999259;28;20223;-83
2023/05/02 03:58:35;;;;;;;8.20;3.97;;;;;;;11.50;44.99;100180.78;5013754;28;20662;-84
2023/05/02 04:01:04;;;;;;;8.13;4.07;;;;;;;11.59;45.15;100196.13;5017847;28;20203;-83
2023/05/02 04:03:32;;;;;;;5.87;3.30;;;;;;;11.47;44.65;100180.81;5017316;28;20227;-83
2023/05/02 04:06:02;;;;;;;8.30;3.90;;;;;;;11.63;44.43;100196.09;5010420;28;20203;-83
2023/05/02 04:08:30;;;;;;;9.10;4.10;;;;;;;11.64;44.43;100190.06;5019066;28;20231;-83
2023/05/02 04:10:58;;;;;;;9.57;4.30;;;;;;;11.61;44.74;100199.56;5003874;28;20262;-83
2023/05/02 04:13:27;;;;;;;4.73;3.80;;;;;;;11.58;45.07;100191.00;5005851;28;20666;-83
2023/05/02 04:15:56;;;;;;;6.67;4.50;;;;;;;11.67;45.06;100193.47;5003509;28;20207;-81
2023/05/02 04:18:26;;;;;;;9.07;4.43;;;;;;;11.70;44.85;100185.66;5016464;28;20663;-84
2023/05/02 04:20:54;;;;;;;9.60;3.90;;;;;;;11.75;44.52;100194.22;5014937;28;20264;-83
2023/05/02 04:23:24;;;;;;;8.30;4.43;;;;;;;11.85;44.18;100192.34;5021598;28;20593;-83
2023/05/02 04:25:52;;;;;;;8.67;3.90;;;;;;;11.96;44.57;100195.63;5022403;28;20636;-83
2023/05/02 04:28:21;;;;;;;6.27;4.10;;;;;;;12.03;44.25;100188.66;5006414;28;20210;-83
2023/05/02 04:30:50;;;;;;;5.57;4.37;;;;;;;12.05;44.16;100184.34;5020929;28;20238;-82
2023/05/02 04:33:19;;;;;;;6.70;3.80;;;;;;;11.98;44.07;100172.41;5009902;28;20203;-83
2023/05/02 04:35:47;;;;;;;9.10;4.30;;;;;;;12.02;44.33;100192.97;5012093;28;20203;-82
2023/05/02 04:38:16;;;;;;;9.07;3.73;;;;;;;12.05;44.37;100192.94;5015915;28;20314;-82
2023/05/02 04:40:46;;;;;;;9.97;3.97;;;;;;;12.15;44.35;100187.63;5011434;28;20306;-83
2023/05/02 04:43:15;;;;;;;6.77;4.03;;;;;;;12.17;44.37;100186.72;5016784;28;20242;-84
2023/05/02 04:45:43;;;;;;;5.53;3.60;;;;;;;12.24;44.02;100198.66;5021438;28;20683;-84
2023/05/02 04:48:13;;;;;;;5.83;3.90;;;;;;;12.27;44.33;100198.63;5008397;28;20608;-82
2023/05/02 04:50:45;;;;;;;8.13;4.23;;;;;;;12.20;43.61;100178.06;4995437;28;20576;-83
2023/05/02 04:53:14;;;;;;;5.80;3.50;;;;;;;12.32;44.20;100191.63;5022232;28;20218;-83
2023/05/02 04:55:43;;;;;;;6.53;3.70;;;;;;;12.33;43.77;100188.19;5016899;28;20224;-83
2023/05/02 04:58:12;;;;;;;7.67;4.27;;;;;;;12.36;43.76;100182.09;5012775;28;20630;-83
2023/05/02 05:00:41;;;;;;;8.87;4.17;;;;;;;12.48;43.59;100193.97;5021271;28;20211;-83
2023/05/02 05:03:11;;;;;;;7.33;4.00;;;;;;;12.56;43.59;100194.72;5021060;28;20422;-83
2023/05/02 05:05:40;;;;;;;8.93;4.67;;;;;;;12.47;43.75;100167.25;5008479;28;20232;-83
2023/05/02 05:08:10;;;;;;;5.00;3.90;;;;;;;12.87;43.47;100188.97;5012760;28;20222;-83
2023/05/02 05:10:42;;;;;;;7.17;4.50;;;;;;;13.11;43.04;100187.63;5022265;28;20238;-83
2023/05/02 05:13:11;;;;;;;7.10;3.87;;;;;;;13.49;42.12;100177.41;5022812;28;20211;-84
2023/05/02 05:15:43;;;;;;;4.73;3.50;;;;;;;13.99;41.10;100190.97;5021199;28;20544;-84
2023/05/02 05:18:12;;;;;;;6.90;4.33;;;;;;;14.65;39.84;100162.56;5003547;28;20207;-83
2023/05/02 05:20:41;;;;;;;5.53;3.63;;;;;;;15.70;38.17;100174.34;5013934;28;20302;-84
2023/05/02 05:23:09;;;;;;;8.63;4.43;;;;;;;16.80;36.17;100175.94;5018432;28;20214;-85
2023/05/02 05:25:39;;;;;;;7.78;4.30;;;;;;;17.92;34.47;100168.34;5011686;28;20566;-84
2023/05/02 05:28:08;;;;;;;6.30;3.65;;;;;;;19.05;32.22;100159.19;5019759;28;20214;-84
2023/05/02 05:30:37;;;;;;;6.00;4.40;;;;;;;19.82;30.51;100155.69;5012626;28;20215;-84
2023/05/02 05:33:09;;;;;;;14.48;4.05;;;;;;;20.24;29.29;100157.13;5001975;28;20208;-83
2023/05/02 05:35:37;;;;;;;6.28;3.53;;;;;;;20.63;28.78;100150.84;5011923;28;20208;-87
2023/05/02 05:38:06;;;;;;;7.07;3.80;;;;;;;21.01;28.22;100132.25;5015133;28;20212;-83
2023/05/02 05:40:33;;;;;;;5.78;3.80;;;;;;;21.84;27.26;100154.81;5006769;28;20666;-83
2023/05/02 05:43:02;;;;;;;6.55;3.75;;;;;;;22.76;26.47;100160.00;5005734;28;20232;-83
2023/05/02 05:45:30;;;;;;;6.85;3.88;;;;;;;23.72;25.01;100155.81;5013077;28;20598;-82
2023/05/02 05:47:59;;;;;;;8.43;3.80;;;;;;;24.52;24.07;100156.66;5012380;28;20211;-83
2023/05/02 05:50:30;;;;;;;7.95;3.83;;;;;;;25.38;23.02;100148.09;5020381;28;20309;-82
2023/05/02 05:53:00;;;;;;;7.95;3.95;;;;;;;26.06;21.83;100146.66;5018968;28;20215;-83
2023/05/02 05:55:29;;;;;;;7.30;4.15;;;;;;;26.01;22.08;100141.75;5004784;28;20220;-81
2023/05/02 05:57:57;;;;;;;4.57;3.65;;;;;;;24.91;22.94;100145.19;5019206;28;20219;-83
2023/05/02 06:00:26;;;;;;;6.50;4.20;;;;;;;24.78;23.00;100149.59;5005465;28;20208;-82
2023/05/02 06:02:54;;;;;;;5.65;3.35;;;;;;;25.26;22.95;100144.53;5017967;28;20634;-83
2023/05/02 06:05:22;;;;;;;6.55;3.85;;;;;;;25.99;22.40;100141.81;5004462;28;20223;-83
2023/05/02 06:07:52;;;;;;;6.53;4.15;;;;;;;26.88;21.49;100147.47;5017701;28;20245;-83
2023/05/02 06:10:21;;;;;;;5.63;4.13;;;;;;;27.29;20.66;100154.84;5019592;28;20767;-80
2023/05/02 06:12:49;;;;;;;7.43;3.47;;;;;;;26.38;21.53;100150.38;5018300;28;20200;-82
2023/05/02 06:15:18;;;;;;;10.65;4.25;;;;;;;25.42;22.61;100145.13;5018259;28;20239;-82
2023/05/02 06:17:46;;;;;;;8.70;3.95;;;;;;;25.64;22.73;100141.78;5002786;28;20203;-83
2023/05/02 06:20:15;;;;;;;5.93;4.00;;;;;;;26.08;22.59;100150.06;5007357;28;20219;-83
2023/05/02 06:22:45;;;;;;;5.88;3.83;;;;;;;25.19;23.16;100153.84;5017577;28;20250;-84
2023/05/02 06:25:16;;;;;;;14.27;4.55;;;;;;;23.74;24.72;100153.91;4997824;28;20320;-82
2023/05/02 06:27:47;;;;;;;5.72;3.70;;;;;;;22.39;27.22;100163.00;4997565;28;20204;-83
2023/05/02 06:30:15;;;;;;;6.30;4.07;;;;;;;21.51;28.43;100158.38;4990218;28;20199;-82
2023/05/02 06:32:43;;;;;;;8.88;3.60;;;;;;;21.39;29.17;100159.91;4996911;28;20230;-83
2023/05/02 06:35:11;;;;;;;7.43;3.97;;;;;;;21.68;29.10;100168.78;4995797;28;20216;-84
2023/05/02 06:37:42;;;;;;;5.75;3.63;;;;;;;22.38;28.42;100163.09;5008235;28;20204;-83
2023/05/02 06:40:12;;;;;;;7.05;4.15;;;;;;;23.84;26.86;100169.00;5017430;28;20334;-82
2023/05/02 06:42:44;;;;;;;6.28;3.63;;;;;;;25.35;25.03;100167.59;5017845;28;20215;-82
2023/05/02 06:45:12;;;;;;;6.80;3.33;;;;;;;26.49;23.89;100153.06;5014616;28;20224;-84
2023/05/02 06:47:41;;;;;;;6.50;3.13;;;;;;;27.52;22.37;100145.03;4999136;28;20603;-82
2023/05/02 06:50:10;;;;;;;6.03;3.33;;;;;;;28.08;21.47;100162.56;5012582;28;20545;-83
2023/05/02 06:52:45;;;;;;;5.95;3.40;;;;;;;28.36;21.02;100161.13;5009461;28;20216;-84
2023/05/02 06:55:16;;;;;;;6.72;3.72;;;;;;;28.23;20.99;100134.78;5000268;28;20249;-84
2023/05/02 06:57:48;;;;;;;7.85;3.58;;;;;;;28.24;21.33;100160.31;5009408;28;20670;-84
2023/05/02 07:00:17;;;;;;;4.35;3.22;;;;;;;28.05;21.42;100157.53;5012607;28;20220;-81
2023/05/02 07:02:47;;;;;;;5.60;3.10;;;;;;;28.25;21.44;100158.53;5008321;28;20196;-81
2023/05/02 07:05:17;;;;;;;5.70;3.10;;;;;;;28.64;21.28;100164.94;5001453;28;20732;-83
2023/05/02 07:07:47;;;;;;;4.72;3.40;;;;;;;28.75;21.02;100172.81;5004514;28;20283;-82
2023/05/02 07:10:15;;;;;;;7.55;3.17;;;;;;;28.98;20.95;100160.28;5018107;28;20243;-83
2023/05/02 07:12:46;;;;;;;6.63;3.20;;;;;;;29.17;20.69;100146.25;5012163;28;20220;-83
2023/05/02 07:15:15;;;;;;;4.93;3.20;;;;;;;29.49;20.56;100159.28;5011383;28;20230;-83
2023/05/02 07:17:48;;;;;;;5.07;2.80;;;;;;;29.64;20.58;100149.16;5002851;28;20551;-82
2023/05/02 07:20:16;;;;;;;4.25;3.20;;;;;;;29.96;19.85;100164.00;5007196;28;20712;-84
2023/05/02 07:22:47;;;;;;;5.75;2.78;;;;;;;29.77;20.25;100159.53;5015989;28;20267;-83
2023/05/02 07:25:16;;;;;;;3.42;2.40;;;;;;;29.24;19.91;100155.34;5005205;28;20227;-82
2023/05/02 07:27:44;;;;;;;3.47;2.63;;;;;;;28.75;20.57;100156.06;5018012;28;20211;-84
2023/05/02 07:30:14;;;;;;;6.40;2.58;;;;;;;28.50;20.33;100162.63;5009683;28;20604;-86
2023/05/02 07:32:42;;;;;;;2.67;2.22;;;;;;;27.97;21.18;100163.47;4997344;28;20215;-83
2023/05/02 07:35:11;;;;;;;3.78;2.55;;;;;;;27.73;21.40;100166.28;5016204;28;20210;-83
2023/05/02 07:37:41;;;;;;;4.43;2.00;;;;;;;27.53;21.55;100167.06;5006739;28;20655;-83
2023/05/02 07:40:10;;;;;;;4.82;2.20;;;;;;;26.69;22.57;100158.63;5000352;28;20207;-83
2023/05/02 07:42:40;;;;;;;3.80;1.77;;;;;;;26.26;22.94;100164.53;5006685;28;20219;-82
2023/05/02 07:45:10;;;;;;;2.97;2.22;;;;;;;26.01;23.17;100170.78;5013011;28;20314;-82
2023/05/02 07:47:43;;;;;;;5.68;2.05;;;;;;;25.59;23.64;100169.44;5009627;28;20262;-84
2023/05/02 07:50:13;;;;;;;2.70;2.05;;;;;;;25.28;24.11;100167.19;5012995;28;20204;-85
2023/05/02 07:52:41;;;;;;;5.68;2.38;;;;;;;25.30;24.32;100167.09;4998603;28;20267;-82
2023/05/02 07:55:12;;;;;;;2.13;1.92;;;;;;;25.08;24.65;100159.00;5013374;28;20203;-83
2023/05/02 07:57:40;;;;;;;2.22;2.00;;;;;;;25.04;24.81;100169.75;5017491;28;20226;-83
2023/05/02 08:00:10;;;;;;;5.07;2.08;;;;;;;25.21;24.84;100170.38;5003849;28;20216;-86
2023/05/02 08:02:38;;;;;;;3.97;2.17;;;;;;;25.20;24.85;100171.34;4998595;28;20577;-84
2023/05/02 08:05:09;;;;;;;5.60;2.15;;;;;;;25.52;25.05;100180.44;5000378;28;20208;-85
2023/05/02 08:07:38;;;;;;;3.85;2.15;;;;;;;26.06;23.55;100175.72;5019616;28;20567;-83
2023/05/02 08:10:09;;;;;;;3.05;2.28;;;;;;;26.02;23.50;100186.50;5020035;28;20626;-84
2023/05/02 08:12:39;;;;;;;5.40;2.30;;;;;;;25.65;24.18;100174.28;5013642;28;20261;-84
2023/05/02 08:15:11;;;;;;;3.45;2.20;;;;;;;25.43;24.77;100189.00;5012131;28;20203;-84
2023/05/02 08:17:40;;;;;;;4.32;2.30;;;;;;;24.93;25.74;100188.09;5018259;28;20202;-83
2023/05/02 08:20:11;;;;;;;3.22;2.33;;;;;;;24.63;26.14;100180.47;5006096;28;20199;-82
2023/05/02 08:22:39;;;;;;;3.25;2.38;;;;;;;24.90;26.31;100192.75;5018778;28;20203;-85
2023/05/02 08:25:09;;;;;;;4.03;2.60;;;;;;;25.23;26.25;100179.03;5004613;28;20195;-85
2023/05/02 08:27:49;;;;;;;3.08;2.75;;;;;;;25.04;26.39;100179.47;5017796;28;20281;-84
2023/05/02 08:30:18;;;;;;;2.92;2.63;;;;;;;24.50;27.07;100164.69;5019170;28;20266;-85
2023/05/02 08:32:49;;;;;;;6.25;2.80;;;;;;;24.32;27.56;100186.94;5018467;28;20210;-83
2023/05/02 08:35:29;;;;;;;7.55;3.17;;;;;;;23.89;28.22;100210.81;5012286;28;20651;-84
2023/05/02 08:37:57;;;;;;;5.60;2.78;;;;;;;23.45;28.91;100211.81;5001170;28;20565;-84
2023/05/02 08:40:27;;;;;;;3.38;2.58;;;;;;;23.01;29.83;100189.09;4991973;28;20250;-83
2023/05/02 08:43:11;;;;;;;6.80;2.97;;;;;;;22.74;30.79;100203.88;5019327;28;20265;-83
2023/05/02 08:45:42;;;;;;;6.10;3.10;;;;;;;22.58;31.15;100214.44;5020799;28;20224;-83
2023/05/02 08:48:15;;;;;;;4.07;2.75;;;;;;;22.37;31.34;100216.53;5007917;28;20601;-85
2023/05/02 08:50:47;;;;;;;4.38;2.90;;;;;;;22.06;31.95;100194.66;5007847;28;20199;-86
2023/05/02 08:53:20;;;;;;;5.03;2.55;;;;;;;22.01;32.28;100204.53;5006523;28;20234;-83
2023/05/02 08:55:49;;;;;;;5.32;3.03;;;;;;;22.04;32.16;100220.13;5001742;28;20223;-85
2023/05/02 08:58:18;;;;;;;4.70;3.55;;;;;;;21.93;32.35;100197.09;5014745;28;20254;-85
2023/05/02 09:00:53;;;;;;;4.65;3.15;;;;;;;21.97;32.81;100215.31;5018493;28;20208;-86
2023/05/02 09:03:30;;;;;;;3.75;2.90;;;;;;;21.84;32.84;100202.03;5009390;28;20211;-85
2023/05/02 09:06:11;;;;;;;5.50;3.08;;;;;;;21.60;33.69;100205.06;5009970;28;20235;-84
2023/05/02 09:08:41;;;;;;;4.50;3.50;;;;;;;21.54;33.45;100215.03;5021170;28;20230;-84
2023/05/02 09:11:17;;;;;;;5.40;2.90;;;;;;;21.73;33.74;100223.63;5014030;28;20243;-85
2023/05/02 09:13:50;;;;;;;6.50;3.15;;;;;;;21.89;33.30;100220.97;5011571;28;20741;-84
2023/05/02 09:16:22;;;;;;;7.70;3.60;;;;;;;22.08;33.21;100205.88;5005905;28;20203;-84
2023/05/02 09:18:52;;;;;;;6.38;3.35;;;;;;;22.25;33.04;100186.59;5004920;28;20299;-83
2023/05/02 09:21:25;;;;;;;3.85;3.05;;;;;;;22.51;32.20;100219.22;5008054;28;20275;-84
2023/05/02 09:23:55;;;;;;;3.78;3.30;;;;;;;22.34;32.82;100224.59;5016441;28;20564;-83
2023/05/02 09:26:30;;;;;;;4.60;3.38;;;;;;;22.02;32.86;100222.00;5021998;28;20222;-84
2023/05/02 09:29:01;;;;;;;9.68;3.40;;;;;;;21.66;33.55;100225.72;5015471;28;20196;-84
2023/05/02 09:31:40;;;;;;;7.32;3.42;;;;;;;21.45;34.18;100224.25;5006531;28;20239;-84
2023/05/02 09:34:13;;;;;;;5.63;3.63;;;;;;;21.22;34.49;100242.03;4996918;28;20670;-84
2023/05/02 09:36:44;;;;;;;7.30;3.60;;;;;;;21.01;35.33;100243.13;5018945;28;20204;-86
2023/05/02 09:39:15;;;;;;;5.75;3.95;;;;;;;20.86;35.75;100244.75;5006938;28;20235;-86
2023/05/02 09:41:47;;;;;;;5.07;3.88;;;;;;;20.75;36.19;100242.69;5021110;28;20207;-85
2023/05/02 09:44:19;;;;;;;4.30;2.80;;;;;;;20.76;36.50;100254.00;5024784;28;20200;-82
2023/05/02 09:46:49;;;;;;;6.43;3.95;;;;;;;20.84;36.32;100235.28;5025729;28;20211;-85
2023/05/02 09:49:20;;;;;;;5.13;3.97;;;;;;;20.94;36.25;100257.47;5016144;28;20242;-87
2023/05/02 09:52:14;;;;;;;9.30;3.67;;;;;;;21.41;36.04;100246.31;5011896;28;20222;-86
2023/05/02 09:54:46;;;;;;;6.00;3.72;;;;;;;22.27;34.49;100245.09;5021375;28;20211;-86
2023/05/02 09:57:15;;;;;;;9.10;4.35;;;;;;;22.43;33.85;100255.59;5022047;28;20211;-85
2023/05/02 09:59:59;;;;;;;8.43;4.30;;;;;;;22.16;34.38;100252.72;5007258;28;20300;-87
2023/05/02 10:02:32;;;;;;;6.32;3.85;;;;;;;21.80;34.98;100268.69;5008561;28;20233;-86
2023/05/02 10:05:03;;;;;;;6.75;4.80;;;;;;;21.35;35.86;100260.59;5012550;28;20282;-86
2023/05/02 10:07:35;;;;;;;5.90;4.20;;;;;;;21.28;36.00;100269.66;5022165;28;20235;-85
2023/05/02 10:10:08;;;;;;;6.30;4.97;;;;;;;20.96;36.37;100230.28;5016236;28;20309;-86
2023/05/02 10:12:41;;;;;;;5.43;4.45;;;;;;;21.03;36.57;100259.63;5003796;28;20204;-86
2023/05/02 10:15:16;;;;;;;7.13;4.75;;;;;;;20.96;36.92;100263.50;5002806;28;20235;-86
2023/05/02 10:17:49;;;;;;;8.48;4.55;;;;;;;20.73;37.17;100268.13;5002707;28;20207;-84
2023/05/02 10:20:23;;;;;;;6.05;4.40;;;;;;;20.47;38.21;100265.88;5003754;28;20200;-84
2023/05/02 10:23:00;;;;;;;7.28;4.50;;;;;;;20.48;39.35;100291.16;5017761;28;20232;-86
2023/05/02 10:25:31;;;;;;;5.65;4.20;;;;;;;21.05;38.85;100289.22;5016105;28;20607;-86
2023/05/02 10:28:00;;;;;;;7.65;4.97;;;;;;;21.43;37.29;100275.94;5017208;28;20226;-84
2023/05/02 10:30:39;;;;;;;6.20;4.32;;;;;;;21.48;37.92;100289.63;5003855;28;20199;-85
2023/05/02 10:33:08;;;;;;;9.25;5.30;;;;;;;21.07;39.02;100290.00;5016778;28;20206;-85
2023/05/02 10:35:40;;;;;;;6.18;5.57;;;;;;;20.60;40.07;100276.66;5023152;28;20211;-85
2023/05/02 10:38:21;;;;;;;11.63;8.70;;;;;;;20.49;41.02;100311.19;5006494;28;20211;-86
2023/05/02 10:40:55;;;;;;;13.32;10.13;;;;;;;20.34;41.20;100314.53;5003466;28;20215;-85
2023/05/02 10:43:32;;;;;;;25.33;17.55;;;;;;;20.21;41.90;100317.75;5018987;28;20229;-85
2023/05/02 10:46:03;;;;;;;23.38;17.13;;;;;;;20.03;41.97;100318.59;5014390;28;20659;-85
2023/05/02 10:48:32;;;;;;;18.60;14.93;;;;;;;19.73;42.19;100308.59;5019927;28;20219;-86
2023/05/02 10:51:02;;;;;;;25.52;15.75;;;;;;;19.63;43.02;100338.72;5022896;28;20222;-86
2023/05/02 10:53:36;;;;;;;14.23;8.73;;;;;;;19.36;43.82;100342.47;5023428;28;20211;-86
2023/05/02 10:56:21;;;;;;;9.10;6.68;;;;;;;19.15;44.08;100349.47;5021989;28;20210;-84
2023/05/02 10:58:54;;;;;;;6.75;5.90;;;;;;;18.88;44.60;100333.19;5021745;28;20265;-85
2023/05/02 11:01:38;;;;;;;5.97;5.05;;;;;;;18.60;45.03;100342.13;5013772;28;20214;-86
2023/05/02 11:04:09;;;;;;;11.90;6.07;;;;;;;18.43;45.77;100352.34;5009261;28;20223;-85
2023/05/02 11:07:16;;;;;;;6.63;5.05;;;;;;;18.08;46.28;100336.31;5012906;28;20204;-86
2023/05/02 11:09:49;;;;;;;8.60;5.43;;;;;;;18.02;46.74;100373.03;5003831;28;20246;-85
2023/05/02 11:12:43;;;;;;;6.10;5.22;;;;;;;17.83;48.81;100384.16;5003288;28;20208;-85
2023/05/02 11:15:12;;;;;;;8.50;5.75;;;;;;;17.67;50.25;100395.13;5016259;28;20199;-84
2023/05/02 11:18:00;;;;;;;12.85;5.82;;;;;;;17.52;52.17;100406.94;5005205;28;20266;-84
2023/05/02 11:20:31;;;;;;;9.25;6.63;;;;;;;17.37;52.60;100398.72;5014046;28;20203;-83
2023/05/02 11:23:24;;;;;;;8.35;6.60;;;;;;;17.14;53.99;100393.47;5006712;28;20208;-85
2023/05/02 11:25:59;;;;;;;10.02;7.72;;;;;;;17.11;55.33;100410.03;5013819;28;20207;-84
2023/05/02 11:28:46;;;;;;;8.55;6.85;;;;;;;17.09;55.88;100437.03;5017138;28;20222;-84
2023/05/02 11:31:52;;;;;;;9.85;7.75;;;;;;;16.90;56.66;100448.03;5018910;28;20197;-85
2023/05/02 11:34:25;;;;;;;8.23;7.40;;;;;;;16.63;56.85;100420.19;5005556;28;20274;-85
2023/05/02 11:36:54;;;;;;;9.27;7.88;;;;;;;16.62;58.11;100447.97;5013397;28;20721;-85
2023/05/02 11:39:23;;;;;;;11.48;7.93;;;;;;;16.66;59.25;100444.38;5017184;28;20222;-85
2023/05/02 11:41:54;;;;;;;12.10;8.82;;;;;;;16.89;58.71;100453.25;5008082;28;20271;-84
2023/05/02 11:44:23;;;;;;;11.45;9.35;;;;;;;17.05;57.88;100438.03;5013888;28;20195;-83
2023/05/02 11:46:52;;;;;;;11.98;9.10;;;;;;;17.00;57.26;100417.31;5007935;28;20212;-85
2023/05/02 11:49:23;;;;;;;11.23;9.00;;;;;;;17.20;56.72;100427.13;5005839;28;20190;-84